sensor_id;sensor_type;location;lat;lon;timestamp;P1;durP1;ratioP1;P2;durP2;ratioP2
60975;SDS011;46849;48.154;17.042;2022-12-15T00:00:52;29.35;;;18.63;;
60975;SDS011;46849;48.154;17.042;2022-12-15T00:03:55;27.80;;;17.40;;
60975;SDS011;46849;48.154;17.042;2022-12-15T00:06:58;25.98;;;16.35;;
60975;SDS011;46849;48.154;17.042;2022-12-15T00:10:01;28.75;;;17.63;;
60975;SDS011;46849;48.154;17.042;2022-12-15T00:13:10;29.70;;;17.77;;
60975;SDS011;46849;48.154;17.042;2022-12-15T00:16:14;27.30;;;16.08;;
60975;SDS011;46849;48.154;17.042;2022-12-15T00:19:18;26.17;;;16.73;;
60975;SDS011;46849;48.154;17.042;2022-12-15T00:22:21;28.20;;;17.67;;
60975;SDS011;46849;48.154;17.042;2022-12-15T00:25:24;32.05;;;18.98;;
60975;SDS011;46849;48.154;17.042;2022-12-15T00:28:27;27.80;;;17.48;;
60975;SDS011;46849;48.154;17.042;2022-12-15T00:31:30;28.73;;;17.55;;
60975;SDS011;46849;48.154;17.042;2022-12-15T00:34:33;27.35;;;17.55;;
60975;SDS011;46849;48.154;17.042;2022-12-15T00:37:37;32.40;;;18.83;;
60975;SDS011;46849;48.154;17.042;2022-12-15T00:40:40;31.58;;;18.35;;
60975;SDS011;46849;48.154;17.042;2022-12-15T00:43:28;31.20;;;17.65;;
60975;SDS011;46849;48.154;17.042;2022-12-15T00:46:13;33.15;;;18.85;;
60975;SDS011;46849;48.154;17.042;2022-12-15T00:49:17;31.42;;;17.88;;
60975;SDS011;46849;48.154;17.042;2022-12-15T00:52:20;29.60;;;18.23;;
60975;SDS011;46849;48.154;17.042;2022-12-15T00:55:23;34.20;;;18.05;;
60975;SDS011;46849;48.154;17.042;2022-12-15T00:58:26;31.08;;;18.73;;
60975;SDS011;46849;48.154;17.042;2022-12-15T01:01:29;30.58;;;18.08;;
60975;SDS011;46849;48.154;17.042;2022-12-15T01:04:32;31.42;;;19.02;;
60975;SDS011;46849;48.154;17.042;2022-12-15T01:07:35;31.00;;;18.30;;
60975;SDS011;46849;48.154;17.042;2022-12-15T01:10:38;31.10;;;18.58;;
60975;SDS011;46849;48.154;17.042;2022-12-15T01:13:41;32.00;;;19.15;;
60975;SDS011;46849;48.154;17.042;2022-12-15T01:16:44;31.58;;;18.60;;
60975;SDS011;46849;48.154;17.042;2022-12-15T01:19:48;29.77;;;18.15;;
60975;SDS011;46849;48.154;17.042;2022-12-15T01:22:54;28.83;;;17.63;;
60975;SDS011;46849;48.154;17.042;2022-12-15T01:25:38;31.80;;;18.02;;
60975;SDS011;46849;48.154;17.042;2022-12-15T01:28:23;30.98;;;19.10;;
60975;SDS011;46849;48.154;17.042;2022-12-15T01:31:08;34.38;;;19.95;;
60975;SDS011;46849;48.154;17.042;2022-12-15T01:33:54;29.48;;;17.35;;
60975;SDS011;46849;48.154;17.042;2022-12-15T01:36:40;30.08;;;17.70;;
60975;SDS011;46849;48.154;17.042;2022-12-15T01:39:24;32.97;;;19.45;;
60975;SDS011;46849;48.154;17.042;2022-12-15T01:42:29;27.23;;;17.08;;
60975;SDS011;46849;48.154;17.042;2022-12-15T01:45:27;32.03;;;18.20;;
60975;SDS011;46849;48.154;17.042;2022-12-15T01:48:35;34.30;;;19.85;;
60975;SDS011;46849;48.154;17.042;2022-12-15T01:51:29;35.67;;;20.30;;
60975;SDS011;46849;48.154;17.042;2022-12-15T01:57:08;30.05;;;18.30;;
60975;SDS011;46849;48.154;17.042;2022-12-15T01:59:58;32.58;;;18.85;;
60975;SDS011;46849;48.154;17.042;2022-12-15T02:02:45;34.63;;;20.85;;
60975;SDS011;46849;48.154;17.042;2022-12-15T02:05:30;34.28;;;19.30;;
60975;SDS011;46849;48.154;17.042;2022-12-15T02:08:17;33.90;;;19.95;;
60975;SDS011;46849;48.154;17.042;2022-12-15T02:11:12;35.92;;;19.92;;
60975;SDS011;46849;48.154;17.042;2022-12-15T02:14:03;36.75;;;20.08;;
60975;SDS011;46849;48.154;17.042;2022-12-15T02:26:37;33.08;;;18.83;;
60975;SDS011;46849;48.154;17.042;2022-12-15T02:35:55;34.67;;;19.05;;
60975;SDS011;46849;48.154;17.042;2022-12-15T02:38:43;35.40;;;20.02;;
60975;SDS011;46849;48.154;17.042;2022-12-15T02:41:38;31.85;;;19.88;;
60975;SDS011;46849;48.154;17.042;2022-12-15T02:44:29;32.78;;;19.58;;
60975;SDS011;46849;48.154;17.042;2022-12-15T02:47:31;32.40;;;19.75;;
60975;SDS011;46849;48.154;17.042;2022-12-15T02:56:22;32.47;;;17.67;;
60975;SDS011;46849;48.154;17.042;2022-12-15T02:59:26;34.42;;;19.50;;
60975;SDS011;46849;48.154;17.042;2022-12-15T03:02:40;34.08;;;20.63;;
60975;SDS011;46849;48.154;17.042;2022-12-15T03:05:29;36.30;;;20.67;;
60975;SDS011;46849;48.154;17.042;2022-12-15T03:08:15;34.53;;;20.05;;
60975;SDS011;46849;48.154;17.042;2022-12-15T03:11:00;32.50;;;19.20;;
60975;SDS011;46849;48.154;17.042;2022-12-15T03:13:45;30.42;;;19.30;;
60975;SDS011;46849;48.154;17.042;2022-12-15T03:16:30;35.58;;;18.63;;
60975;SDS011;46849;48.154;17.042;2022-12-15T03:19:14;33.08;;;19.65;;
60975;SDS011;46849;48.154;17.042;2022-12-15T03:21:59;34.00;;;19.55;;
60975;SDS011;46849;48.154;17.042;2022-12-15T03:24:44;35.88;;;19.88;;
60975;SDS011;46849;48.154;17.042;2022-12-15T03:27:28;37.22;;;20.92;;
60975;SDS011;46849;48.154;17.042;2022-12-15T03:30:13;37.50;;;21.10;;
60975;SDS011;46849;48.154;17.042;2022-12-15T03:32:58;37.33;;;21.23;;
60975;SDS011;46849;48.154;17.042;2022-12-15T03:35:42;32.92;;;19.55;;
60975;SDS011;46849;48.154;17.042;2022-12-15T03:38:27;33.70;;;19.00;;
60975;SDS011;46849;48.154;17.042;2022-12-15T03:41:12;33.35;;;20.05;;
60975;SDS011;46849;48.154;17.042;2022-12-15T03:43:57;32.70;;;20.17;;
60975;SDS011;46849;48.154;17.042;2022-12-15T03:46:41;36.72;;;19.85;;
60975;SDS011;46849;48.154;17.042;2022-12-15T03:49:26;37.65;;;20.50;;
60975;SDS011;46849;48.154;17.042;2022-12-15T03:52:10;34.53;;;20.08;;
60975;SDS011;46849;48.154;17.042;2022-12-15T03:54:55;38.63;;;21.42;;
60975;SDS011;46849;48.154;17.042;2022-12-15T03:57:39;36.40;;;20.60;;
60975;SDS011;46849;48.154;17.042;2022-12-15T04:00:27;36.17;;;20.38;;
60975;SDS011;46849;48.154;17.042;2022-12-15T04:03:12;36.58;;;20.33;;
60975;SDS011;46849;48.154;17.042;2022-12-15T04:05:57;34.30;;;19.90;;
60975;SDS011;46849;48.154;17.042;2022-12-15T04:08:42;36.85;;;20.17;;
60975;SDS011;46849;48.154;17.042;2022-12-15T04:11:27;33.00;;;19.15;;
60975;SDS011;46849;48.154;17.042;2022-12-15T04:14:12;34.53;;;19.80;;
60975;SDS011;46849;48.154;17.042;2022-12-15T04:16:57;39.40;;;21.77;;
60975;SDS011;46849;48.154;17.042;2022-12-15T04:19:43;31.63;;;18.10;;
60975;SDS011;46849;48.154;17.042;2022-12-15T04:22:47;34.50;;;19.30;;
60975;SDS011;46849;48.154;17.042;2022-12-15T04:25:33;33.10;;;19.58;;
60975;SDS011;46849;48.154;17.042;2022-12-15T04:28:37;30.65;;;18.02;;
60975;SDS011;46849;48.154;17.042;2022-12-15T04:31:41;39.58;;;22.55;;
60975;SDS011;46849;48.154;17.042;2022-12-15T04:34:44;33.45;;;19.85;;
60975;SDS011;46849;48.154;17.042;2022-12-15T04:37:47;32.42;;;18.65;;
60975;SDS011;46849;48.154;17.042;2022-12-15T04:40:50;37.72;;;21.35;;
60975;SDS011;46849;48.154;17.042;2022-12-15T04:43:54;43.75;;;23.20;;
60975;SDS011;46849;48.154;17.042;2022-12-15T04:46:57;31.98;;;19.55;;
60975;SDS011;46849;48.154;17.042;2022-12-15T04:50:00;39.40;;;21.33;;
60975;SDS011;46849;48.154;17.042;2022-12-15T04:53:07;38.90;;;21.27;;
60975;SDS011;46849;48.154;17.042;2022-12-15T04:56:14;40.55;;;22.48;;
60975;SDS011;46849;48.154;17.042;2022-12-15T04:59:18;39.00;;;23.00;;
60975;SDS011;46849;48.154;17.042;2022-12-15T05:02:22;38.97;;;19.90;;
60975;SDS011;46849;48.154;17.042;2022-12-15T05:05:25;38.38;;;22.75;;
60975;SDS011;46849;48.154;17.042;2022-12-15T05:08:29;39.78;;;20.75;;
60975;SDS011;46849;48.154;17.042;2022-12-15T05:11:32;37.83;;;21.67;;
60975;SDS011;46849;48.154;17.042;2022-12-15T05:14:37;39.22;;;21.42;;
60975;SDS011;46849;48.154;17.042;2022-12-15T05:17:40;41.03;;;23.27;;
60975;SDS011;46849;48.154;17.042;2022-12-15T05:20:43;39.35;;;22.27;;
60975;SDS011;46849;48.154;17.042;2022-12-15T05:23:47;42.15;;;23.08;;
60975;SDS011;46849;48.154;17.042;2022-12-15T05:26:50;39.65;;;21.48;;
60975;SDS011;46849;48.154;17.042;2022-12-15T05:29:54;41.50;;;22.45;;
60975;SDS011;46849;48.154;17.042;2022-12-15T05:32:57;45.03;;;24.35;;
60975;SDS011;46849;48.154;17.042;2022-12-15T05:35:46;42.58;;;23.35;;
60975;SDS011;46849;48.154;17.042;2022-12-15T05:38:30;42.58;;;23.10;;
60975;SDS011;46849;48.154;17.042;2022-12-15T05:41:15;36.90;;;21.85;;
60975;SDS011;46849;48.154;17.042;2022-12-15T05:44:04;41.25;;;23.25;;
60975;SDS011;46849;48.154;17.042;2022-12-15T05:46:49;38.33;;;20.73;;
60975;SDS011;46849;48.154;17.042;2022-12-15T05:49:35;37.42;;;20.63;;
60975;SDS011;46849;48.154;17.042;2022-12-15T05:52:20;46.03;;;24.35;;
60975;SDS011;46849;48.154;17.042;2022-12-15T05:55:05;39.13;;;21.33;;
60975;SDS011;46849;48.154;17.042;2022-12-15T05:57:52;42.45;;;23.80;;
60975;SDS011;46849;48.154;17.042;2022-12-15T06:00:37;41.28;;;22.38;;
60975;SDS011;46849;48.154;17.042;2022-12-15T06:03:22;47.45;;;24.98;;
60975;SDS011;46849;48.154;17.042;2022-12-15T06:06:07;43.40;;;24.02;;
60975;SDS011;46849;48.154;17.042;2022-12-15T06:08:54;39.63;;;22.42;;
60975;SDS011;46849;48.154;17.042;2022-12-15T06:11:39;43.70;;;23.80;;
60975;SDS011;46849;48.154;17.042;2022-12-15T06:14:24;41.10;;;23.58;;
60975;SDS011;46849;48.154;17.042;2022-12-15T06:17:09;44.65;;;24.20;;
60975;SDS011;46849;48.154;17.042;2022-12-15T06:19:53;47.22;;;26.88;;
60975;SDS011;46849;48.154;17.042;2022-12-15T06:22:38;49.25;;;27.40;;
60975;SDS011;46849;48.154;17.042;2022-12-15T06:25:22;36.15;;;19.00;;
60975;SDS011;46849;48.154;17.042;2022-12-15T06:28:07;45.00;;;23.40;;
60975;SDS011;46849;48.154;17.042;2022-12-15T06:30:53;43.67;;;25.08;;
60975;SDS011;46849;48.154;17.042;2022-12-15T06:33:39;41.58;;;23.92;;
60975;SDS011;46849;48.154;17.042;2022-12-15T06:36:24;42.72;;;24.83;;
60975;SDS011;46849;48.154;17.042;2022-12-15T06:39:14;34.67;;;19.70;;
60975;SDS011;46849;48.154;17.042;2022-12-15T06:41:59;37.70;;;23.15;;
60975;SDS011;46849;48.154;17.042;2022-12-15T06:44:44;44.33;;;23.67;;
60975;SDS011;46849;48.154;17.042;2022-12-15T06:47:28;42.25;;;24.30;;
60975;SDS011;46849;48.154;17.042;2022-12-15T06:50:13;43.90;;;23.75;;
60975;SDS011;46849;48.154;17.042;2022-12-15T06:52:58;37.60;;;18.75;;
60975;SDS011;46849;48.154;17.042;2022-12-15T06:55:43;41.53;;;22.77;;
60975;SDS011;46849;48.154;17.042;2022-12-15T06:58:28;41.65;;;22.50;;
60975;SDS011;46849;48.154;17.042;2022-12-15T07:01:15;39.17;;;21.25;;
60975;SDS011;46849;48.154;17.042;2022-12-15T07:04:02;45.13;;;25.48;;
60975;SDS011;46849;48.154;17.042;2022-12-15T07:06:48;49.05;;;27.75;;
60975;SDS011;46849;48.154;17.042;2022-12-15T07:09:33;43.47;;;25.02;;
60975;SDS011;46849;48.154;17.042;2022-12-15T07:12:18;42.05;;;23.27;;
60975;SDS011;46849;48.154;17.042;2022-12-15T07:15:03;37.53;;;20.52;;
60975;SDS011;46849;48.154;17.042;2022-12-15T07:17:48;26.45;;;14.70;;
60975;SDS011;46849;48.154;17.042;2022-12-15T07:20:32;32.00;;;16.40;;
60975;SDS011;46849;48.154;17.042;2022-12-15T07:23:17;32.17;;;17.48;;
60975;SDS011;46849;48.154;17.042;2022-12-15T07:26:05;37.85;;;19.58;;
60975;SDS011;46849;48.154;17.042;2022-12-15T07:28:52;46.03;;;24.92;;
60975;SDS011;46849;48.154;17.042;2022-12-15T07:31:37;33.95;;;18.75;;
60975;SDS011;46849;48.154;17.042;2022-12-15T07:34:21;34.67;;;17.70;;
60975;SDS011;46849;48.154;17.042;2022-12-15T07:37:07;38.10;;;20.15;;
60975;SDS011;46849;48.154;17.042;2022-12-15T07:39:52;46.40;;;23.55;;
60975;SDS011;46849;48.154;17.042;2022-12-15T07:42:36;47.33;;;24.00;;
60975;SDS011;46849;48.154;17.042;2022-12-15T07:45:22;48.08;;;22.45;;
60975;SDS011;46849;48.154;17.042;2022-12-15T07:48:06;45.22;;;24.10;;
60975;SDS011;46849;48.154;17.042;2022-12-15T07:50:51;43.22;;;22.17;;
60975;SDS011;46849;48.154;17.042;2022-12-15T07:53:40;45.20;;;24.20;;
60975;SDS011;46849;48.154;17.042;2022-12-15T07:56:24;45.33;;;23.45;;
60975;SDS011;46849;48.154;17.042;2022-12-15T07:59:09;43.33;;;23.33;;
60975;SDS011;46849;48.154;17.042;2022-12-15T08:01:54;39.55;;;22.27;;
60975;SDS011;46849;48.154;17.042;2022-12-15T08:04:39;37.70;;;21.55;;
60975;SDS011;46849;48.154;17.042;2022-12-15T08:07:24;39.53;;;22.33;;
60975;SDS011;46849;48.154;17.042;2022-12-15T08:10:08;38.42;;;20.90;;
60975;SDS011;46849;48.154;17.042;2022-12-15T08:12:53;41.28;;;22.50;;
60975;SDS011;46849;48.154;17.042;2022-12-15T08:15:38;41.03;;;23.25;;
60975;SDS011;46849;48.154;17.042;2022-12-15T08:18:24;41.70;;;23.55;;
60975;SDS011;46849;48.154;17.042;2022-12-15T08:21:09;47.17;;;26.80;;
60975;SDS011;46849;48.154;17.042;2022-12-15T08:23:55;40.00;;;22.50;;
60975;SDS011;46849;48.154;17.042;2022-12-15T08:26:40;50.45;;;25.58;;
60975;SDS011;46849;48.154;17.042;2022-12-15T08:29:26;48.53;;;26.80;;
60975;SDS011;46849;48.154;17.042;2022-12-15T08:32:11;49.17;;;26.55;;
60975;SDS011;46849;48.154;17.042;2022-12-15T08:34:57;44.72;;;25.88;;
60975;SDS011;46849;48.154;17.042;2022-12-15T08:37:41;47.28;;;25.98;;
60975;SDS011;46849;48.154;17.042;2022-12-15T08:40:26;52.03;;;27.40;;
60975;SDS011;46849;48.154;17.042;2022-12-15T08:43:11;53.35;;;28.63;;
60975;SDS011;46849;48.154;17.042;2022-12-15T08:45:56;51.30;;;27.92;;
60975;SDS011;46849;48.154;17.042;2022-12-15T08:48:42;67.05;;;33.30;;
60975;SDS011;46849;48.154;17.042;2022-12-15T08:51:27;57.28;;;29.55;;
60975;SDS011;46849;48.154;17.042;2022-12-15T08:54:14;55.65;;;28.67;;
60975;SDS011;46849;48.154;17.042;2022-12-15T08:56:58;57.53;;;29.33;;
60975;SDS011;46849;48.154;17.042;2022-12-15T08:59:43;56.78;;;29.90;;
60975;SDS011;46849;48.154;17.042;2022-12-15T09:02:28;62.17;;;30.17;;
60975;SDS011;46849;48.154;17.042;2022-12-15T09:05:13;59.72;;;29.88;;
60975;SDS011;46849;48.154;17.042;2022-12-15T09:07:57;67.13;;;31.90;;
60975;SDS011;46849;48.154;17.042;2022-12-15T09:10:42;61.72;;;30.92;;
60975;SDS011;46849;48.154;17.042;2022-12-15T09:13:28;58.17;;;30.42;;
60975;SDS011;46849;48.154;17.042;2022-12-15T09:16:15;52.00;;;27.60;;
60975;SDS011;46849;48.154;17.042;2022-12-15T09:19:00;51.65;;;27.13;;
60975;SDS011;46849;48.154;17.042;2022-12-15T09:21:45;51.90;;;26.23;;
60975;SDS011;46849;48.154;17.042;2022-12-15T09:24:31;50.40;;;26.88;;
60975;SDS011;46849;48.154;17.042;2022-12-15T09:27:16;48.30;;;26.60;;
60975;SDS011;46849;48.154;17.042;2022-12-15T09:30:01;47.22;;;25.95;;
60975;SDS011;46849;48.154;17.042;2022-12-15T09:32:46;50.08;;;26.13;;
60975;SDS011;46849;48.154;17.042;2022-12-15T09:35:30;50.83;;;27.17;;
60975;SDS011;46849;48.154;17.042;2022-12-15T09:38:15;50.38;;;26.35;;
60975;SDS011;46849;48.154;17.042;2022-12-15T09:41:11;53.17;;;27.50;;
60975;SDS011;46849;48.154;17.042;2022-12-15T09:44:11;51.22;;;24.83;;
60975;SDS011;46849;48.154;17.042;2022-12-15T09:47:00;46.13;;;25.55;;
60975;SDS011;46849;48.154;17.042;2022-12-15T09:50:11;46.97;;;25.27;;
60975;SDS011;46849;48.154;17.042;2022-12-15T09:53:00;47.60;;;25.98;;
60975;SDS011;46849;48.154;17.042;2022-12-15T09:55:51;49.33;;;26.33;;
60975;SDS011;46849;48.154;17.042;2022-12-15T09:58:55;48.45;;;25.58;;
60975;SDS011;46849;48.154;17.042;2022-12-15T10:01:51;47.50;;;25.33;;
60975;SDS011;46849;48.154;17.042;2022-12-15T10:08:03;48.20;;;24.98;;
60975;SDS011;46849;48.154;17.042;2022-12-15T10:20:16;47.47;;;26.20;;
60975;SDS011;46849;48.154;17.042;2022-12-15T10:23:14;49.63;;;26.60;;
60975;SDS011;46849;48.154;17.042;2022-12-15T10:26:09;55.05;;;27.30;;
60975;SDS011;46849;48.154;17.042;2022-12-15T10:29:08;59.88;;;29.25;;
60975;SDS011;46849;48.154;17.042;2022-12-15T10:32:03;43.42;;;23.52;;
60975;SDS011;46849;48.154;17.042;2022-12-15T10:34:58;48.53;;;25.95;;
60975;SDS011;46849;48.154;17.042;2022-12-15T10:37:42;49.97;;;27.13;;
60975;SDS011;46849;48.154;17.042;2022-12-15T10:43:47;49.72;;;26.83;;
60975;SDS011;46849;48.154;17.042;2022-12-15T10:46:36;47.92;;;26.42;;
60975;SDS011;46849;48.154;17.042;2022-12-15T10:49:21;52.35;;;27.65;;
60975;SDS011;46849;48.154;17.042;2022-12-15T10:55:30;50.60;;;28.08;;
60975;SDS011;46849;48.154;17.042;2022-12-15T10:58:23;51.20;;;26.63;;
60975;SDS011;46849;48.154;17.042;2022-12-15T11:01:11;63.42;;;30.33;;
60975;SDS011;46849;48.154;17.042;2022-12-15T11:04:01;54.75;;;28.08;;
60975;SDS011;46849;48.154;17.042;2022-12-15T11:06:45;54.30;;;29.00;;
60975;SDS011;46849;48.154;17.042;2022-12-15T11:09:32;53.92;;;28.80;;
60975;SDS011;46849;48.154;17.042;2022-12-15T11:12:20;56.25;;;29.52;;
60975;SDS011;46849;48.154;17.042;2022-12-15T11:28:01;51.88;;;27.63;;
60975;SDS011;46849;48.154;17.042;2022-12-15T11:30:56;58.13;;;30.65;;
60975;SDS011;46849;48.154;17.042;2022-12-15T11:33:50;56.30;;;28.38;;
60975;SDS011;46849;48.154;17.042;2022-12-15T11:36:40;47.92;;;25.48;;
60975;SDS011;46849;48.154;17.042;2022-12-15T11:51:47;47.92;;;26.23;;
60975;SDS011;46849;48.154;17.042;2022-12-15T11:54:45;55.20;;;27.50;;
60975;SDS011;46849;48.154;17.042;2022-12-15T12:19:04;60.03;;;31.73;;
60975;SDS011;46849;48.154;17.042;2022-12-15T12:21:55;62.22;;;31.60;;
60975;SDS011;46849;48.154;17.042;2022-12-15T12:28:01;64.03;;;32.60;;
60975;SDS011;46849;48.154;17.042;2022-12-15T12:31:11;57.88;;;29.48;;
60975;SDS011;46849;48.154;17.042;2022-12-15T12:34:16;57.47;;;27.80;;
60975;SDS011;46849;48.154;17.042;2022-12-15T12:40:23;58.53;;;28.88;;
60975;SDS011;46849;48.154;17.042;2022-12-15T12:43:18;60.80;;;30.65;;
60975;SDS011;46849;48.154;17.042;2022-12-15T12:46:28;57.67;;;29.98;;
60975;SDS011;46849;48.154;17.042;2022-12-15T12:49:22;56.20;;;28.83;;
60975;SDS011;46849;48.154;17.042;2022-12-15T12:52:34;55.05;;;29.17;;
60975;SDS011;46849;48.154;17.042;2022-12-15T12:55:24;61.72;;;28.95;;
60975;SDS011;46849;48.154;17.042;2022-12-15T13:01:18;63.40;;;31.27;;
60975;SDS011;46849;48.154;17.042;2022-12-15T13:04:11;61.17;;;29.23;;
60975;SDS011;46849;48.154;17.042;2022-12-15T13:07:36;62.03;;;28.55;;
60975;SDS011;46849;48.154;17.042;2022-12-15T13:10:24;60.60;;;31.52;;
60975;SDS011;46849;48.154;17.042;2022-12-15T13:16:22;55.83;;;28.30;;
60975;SDS011;46849;48.154;17.042;2022-12-15T13:19:09;43.00;;;22.25;;
60975;SDS011;46849;48.154;17.042;2022-12-15T13:21:54;60.17;;;28.98;;
60975;SDS011;46849;48.154;17.042;2022-12-15T13:24:45;59.88;;;29.58;;
60975;SDS011;46849;48.154;17.042;2022-12-15T13:27:37;58.67;;;28.35;;
60975;SDS011;46849;48.154;17.042;2022-12-15T13:30:23;61.28;;;30.35;;
60975;SDS011;46849;48.154;17.042;2022-12-15T13:33:13;59.70;;;29.27;;
60975;SDS011;46849;48.154;17.042;2022-12-15T13:36:00;62.03;;;29.83;;
60975;SDS011;46849;48.154;17.042;2022-12-15T13:38:52;72.53;;;33.53;;
60975;SDS011;46849;48.154;17.042;2022-12-15T13:41:40;65.78;;;30.88;;
60975;SDS011;46849;48.154;17.042;2022-12-15T13:44:28;66.22;;;31.02;;
60975;SDS011;46849;48.154;17.042;2022-12-15T13:47:21;61.85;;;29.95;;
60975;SDS011;46849;48.154;17.042;2022-12-15T13:50:13;63.90;;;31.58;;
60975;SDS011;46849;48.154;17.042;2022-12-15T13:53:02;65.53;;;30.80;;
60975;SDS011;46849;48.154;17.042;2022-12-15T13:55:51;63.55;;;29.65;;
60975;SDS011;46849;48.154;17.042;2022-12-15T13:58:42;70.57;;;30.73;;
60975;SDS011;46849;48.154;17.042;2022-12-15T14:01:31;71.30;;;32.95;;
60975;SDS011;46849;48.154;17.042;2022-12-15T14:04:17;70.43;;;32.25;;
60975;SDS011;46849;48.154;17.042;2022-12-15T14:07:04;67.68;;;30.65;;
60975;SDS011;46849;48.154;17.042;2022-12-15T14:09:49;74.32;;;33.92;;
60975;SDS011;46849;48.154;17.042;2022-12-15T14:12:34;65.63;;;31.10;;
60975;SDS011;46849;48.154;17.042;2022-12-15T14:15:24;65.80;;;29.88;;
60975;SDS011;46849;48.154;17.042;2022-12-15T14:21:20;69.43;;;30.95;;
60975;SDS011;46849;48.154;17.042;2022-12-15T14:27:21;64.57;;;28.70;;
60975;SDS011;46849;48.154;17.042;2022-12-15T14:33:00;73.68;;;33.30;;
60975;SDS011;46849;48.154;17.042;2022-12-15T14:35:48;76.07;;;33.67;;
60975;SDS011;46849;48.154;17.042;2022-12-15T14:41:22;71.63;;;32.13;;
60975;SDS011;46849;48.154;17.042;2022-12-15T14:44:14;69.95;;;30.95;;
60975;SDS011;46849;48.154;17.042;2022-12-15T14:47:05;72.38;;;32.75;;
60975;SDS011;46849;48.154;17.042;2022-12-15T14:49:59;71.20;;;32.10;;
60975;SDS011;46849;48.154;17.042;2022-12-15T14:52:46;78.93;;;34.08;;
60975;SDS011;46849;48.154;17.042;2022-12-15T14:58:28;78.03;;;33.95;;
60975;SDS011;46849;48.154;17.042;2022-12-15T15:04:30;69.60;;;31.85;;
60975;SDS011;46849;48.154;17.042;2022-12-15T15:07:15;68.97;;;31.15;;
60975;SDS011;46849;48.154;17.042;2022-12-15T15:10:02;78.13;;;33.90;;
60975;SDS011;46849;48.154;17.042;2022-12-15T15:13:04;82.18;;;33.25;;
60975;SDS011;46849;48.154;17.042;2022-12-15T15:15:56;79.95;;;32.38;;
60975;SDS011;46849;48.154;17.042;2022-12-15T15:18:48;88.88;;;33.60;;
60975;SDS011;46849;48.154;17.042;2022-12-15T15:21:35;74.10;;;33.55;;
60975;SDS011;46849;48.154;17.042;2022-12-15T15:27:30;81.60;;;33.38;;
60975;SDS011;46849;48.154;17.042;2022-12-15T15:30:19;88.10;;;35.70;;
60975;SDS011;46849;48.154;17.042;2022-12-15T15:33:06;84.63;;;34.15;;
60975;SDS011;46849;48.154;17.042;2022-12-15T15:35:52;84.05;;;35.58;;
60975;SDS011;46849;48.154;17.042;2022-12-15T15:38:40;81.68;;;35.05;;
60975;SDS011;46849;48.154;17.042;2022-12-15T15:41:26;79.80;;;33.45;;
60975;SDS011;46849;48.154;17.042;2022-12-15T15:44:14;76.85;;;32.42;;
60975;SDS011;46849;48.154;17.042;2022-12-15T15:46:58;76.38;;;32.88;;
60975;SDS011;46849;48.154;17.042;2022-12-15T15:49:44;88.40;;;36.20;;
60975;SDS011;46849;48.154;17.042;2022-12-15T15:52:29;84.53;;;34.42;;
60975;SDS011;46849;48.154;17.042;2022-12-15T15:55:16;68.35;;;30.85;;
60975;SDS011;46849;48.154;17.042;2022-12-15T15:58:10;80.47;;;33.95;;
60975;SDS011;46849;48.154;17.042;2022-12-15T16:00:55;84.57;;;35.40;;
60975;SDS011;46849;48.154;17.042;2022-12-15T16:03:41;88.40;;;36.72;;
60975;SDS011;46849;48.154;17.042;2022-12-15T16:06:26;88.95;;;35.05;;
60975;SDS011;46849;48.154;17.042;2022-12-15T16:09:11;95.47;;;34.45;;
60975;SDS011;46849;48.154;17.042;2022-12-15T16:11:58;81.53;;;31.63;;
60975;SDS011;46849;48.154;17.042;2022-12-15T16:14:43;93.82;;;37.70;;
60975;SDS011;46849;48.154;17.042;2022-12-15T16:17:29;86.93;;;33.25;;
60975;SDS011;46849;48.154;17.042;2022-12-15T16:20:14;82.93;;;34.13;;
60975;SDS011;46849;48.154;17.042;2022-12-15T16:23:01;88.63;;;34.63;;
60975;SDS011;46849;48.154;17.042;2022-12-15T16:25:54;74.43;;;29.80;;
60975;SDS011;46849;48.154;17.042;2022-12-15T16:28:40;89.78;;;36.85;;
60975;SDS011;46849;48.154;17.042;2022-12-15T16:31:32;92.57;;;34.63;;
60975;SDS011;46849;48.154;17.042;2022-12-15T16:34:22;80.75;;;32.67;;
60975;SDS011;46849;48.154;17.042;2022-12-15T16:37:14;87.63;;;35.42;;
60975;SDS011;46849;48.154;17.042;2022-12-15T16:40:19;89.25;;;37.35;;
60975;SDS011;46849;48.154;17.042;2022-12-15T16:43:14;84.03;;;35.00;;
60975;SDS011;46849;48.154;17.042;2022-12-15T16:46:01;97.25;;;38.03;;
60975;SDS011;46849;48.154;17.042;2022-12-15T16:48:45;86.55;;;37.10;;
60975;SDS011;46849;48.154;17.042;2022-12-15T16:51:35;86.57;;;32.55;;
60975;SDS011;46849;48.154;17.042;2022-12-15T16:57:09;83.85;;;34.72;;
60975;SDS011;46849;48.154;17.042;2022-12-15T16:59:55;83.53;;;35.08;;
60975;SDS011;46849;48.154;17.042;2022-12-15T17:02:40;84.07;;;35.40;;
60975;SDS011;46849;48.154;17.042;2022-12-15T17:05:26;94.03;;;36.85;;
60975;SDS011;46849;48.154;17.042;2022-12-15T17:08:19;79.10;;;31.42;;
60975;SDS011;46849;48.154;17.042;2022-12-15T17:11:17;80.65;;;32.55;;
60975;SDS011;46849;48.154;17.042;2022-12-15T17:14:04;80.80;;;32.92;;
60975;SDS011;46849;48.154;17.042;2022-12-15T17:16:49;86.40;;;34.40;;
60975;SDS011;46849;48.154;17.042;2022-12-15T17:19:33;78.32;;;35.92;;
60975;SDS011;46849;48.154;17.042;2022-12-15T17:22:18;79.38;;;32.20;;
60975;SDS011;46849;48.154;17.042;2022-12-15T17:25:18;83.75;;;34.95;;
60975;SDS011;46849;48.154;17.042;2022-12-15T17:28:05;97.38;;;37.45;;
60975;SDS011;46849;48.154;17.042;2022-12-15T17:30:55;81.88;;;34.25;;
60975;SDS011;46849;48.154;17.042;2022-12-15T17:33:40;79.72;;;32.15;;
60975;SDS011;46849;48.154;17.042;2022-12-15T17:36:25;88.43;;;36.25;;
60975;SDS011;46849;48.154;17.042;2022-12-15T17:39:10;85.78;;;35.13;;
60975;SDS011;46849;48.154;17.042;2022-12-15T17:41:57;85.00;;;36.38;;
60975;SDS011;46849;48.154;17.042;2022-12-15T17:44:42;90.47;;;36.30;;
60975;SDS011;46849;48.154;17.042;2022-12-15T17:47:30;81.13;;;34.15;;
60975;SDS011;46849;48.154;17.042;2022-12-15T17:50:14;85.95;;;32.90;;
60975;SDS011;46849;48.154;17.042;2022-12-15T17:53:00;88.45;;;34.00;;
60975;SDS011;46849;48.154;17.042;2022-12-15T17:55:48;88.38;;;36.55;;
60975;SDS011;46849;48.154;17.042;2022-12-15T17:58:34;80.50;;;33.00;;
60975;SDS011;46849;48.154;17.042;2022-12-15T18:01:19;87.57;;;35.15;;
60975;SDS011;46849;48.154;17.042;2022-12-15T18:04:04;89.05;;;33.03;;
60975;SDS011;46849;48.154;17.042;2022-12-15T18:06:48;85.40;;;33.35;;
60975;SDS011;46849;48.154;17.042;2022-12-15T18:09:34;78.63;;;33.28;;
60975;SDS011;46849;48.154;17.042;2022-12-15T18:12:20;79.60;;;32.67;;
60975;SDS011;46849;48.154;17.042;2022-12-15T18:15:12;79.85;;;31.05;;
60975;SDS011;46849;48.154;17.042;2022-12-15T18:18:02;77.38;;;32.47;;
60975;SDS011;46849;48.154;17.042;2022-12-15T18:20:48;76.68;;;31.05;;
60975;SDS011;46849;48.154;17.042;2022-12-15T18:23:34;79.93;;;32.40;;
60975;SDS011;46849;48.154;17.042;2022-12-15T18:26:19;86.57;;;32.13;;
60975;SDS011;46849;48.154;17.042;2022-12-15T18:29:14;79.75;;;32.20;;